Tapera, Brazil
Current Conditions -  °F | °C
As of 6:00 PM on Monday 20 Oct 2014 (Local Time) from SBPF Reporting Station
Clear Clear  
Wind Chill: 73°   Ceiling: Unl
Heat Index: 73°   Visibility: 6mi
Dew Point: 59°   Wind: 12mph
Humidity: 61%   Direction: 190°S
Pressure: 30.09"   Gusts: NA
Location:  28.63°S, 52.87°W
Report Text: SBPF 202100Z 19010KT CAVOK 23/15 Q1019
Loading
Personal Weather Stations






























Interactive Weather Map New forecast layout! Learn more

10-Day Weather Forecast

Advertisements
Track Severe Weather on mobile